Time;durP1;ratioP1;P1;durP2;ratioP2;P2;SDS_P1;SDS_P2;PMS_P1;PMS_P2;Temp;Humidity;BMP_temperature;BMP_pressure;BME280_temperature;BME280_humidity;BME280_pressure;Samples;Min_cycle;Max_cycle;Signal;HPM_P1;HPM_P2
2022/07/05 00:00:33;;;;;;;;;;;;;;;21.92;44.97;99759.75;3157576;28;19981;-67
2022/07/05 00:02:05;;;;;;;;;;;;;;;21.95;44.97;99759.44;3151970;28;19928;-67
2022/07/05 00:03:35;;;;;;;;;;;;;;;21.97;44.96;99767.25;3158064;28;19928;-67
2022/07/05 00:05:07;;;;;;;;;;;;;;;21.97;44.93;99762.78;3157839;28;19924;-67
2022/07/05 00:07:17;;;;;;;;;;;;;;;21.98;45.08;99763.63;3157976;28;19924;-66
2022/07/05 00:08:31;;;;;;;;;;;;;;;22.00;44.96;99764.31;3158804;28;20042;-67
2022/07/05 00:10:03;;;;;;;;;;;;;;;21.99;45.40;99762.66;3157656;28;19928;-67
2022/07/05 00:11:35;;;;;;;;;;;;;;;21.99;44.80;99762.66;3164769;28;19931;-67
2022/07/05 00:13:06;;;;;;;;;;;;;;;22.02;44.77;99767.66;3164285;28;19974;-67
2022/07/05 00:14:38;;;;;;;;;;;;;;;22.06;44.93;99768.22;3157718;28;19931;-66
2022/07/05 00:16:11;;;;;;;;;;;;;;;22.07;44.75;99759.28;3157779;28;19928;-66
2022/07/05 00:17:42;;;;;;;;;;;;;;;22.09;44.95;99757.31;3157481;28;19924;-67
2022/07/05 00:19:14;;;;;;;;;;;;;;;22.10;45.32;99764.31;3157961;28;19924;-67
2022/07/05 00:20:45;;;;;;;;;;;;;;;22.09;45.57;99768.75;3157758;28;19950;-67
2022/07/05 00:22:17;;;;;;;;;;;;;;;21.96;46.55;99753.16;3157412;28;20018;-67
2022/07/05 00:23:49;;;;;;;;;;;;;;;21.98;46.67;99767.13;3157912;28;19993;-67
2022/07/05 00:25:20;;;;;;;;;;;;;;;21.94;47.11;99757.75;3157674;28;19932;-67
2022/07/05 00:26:52;;;;;;;;;;;;;;;21.94;47.06;99760.41;3157426;28;19935;-67
2022/07/05 00:28:23;;;;;;;;;;;;;;;21.90;47.44;99759.03;3157644;28;19928;-67
2022/07/05 00:29:55;;;;;;;;;;;;;;;21.87;47.46;99764.63;3157399;28;19928;-67
2022/07/05 00:31:28;;;;;;;;;;;;;;;21.90;46.94;99771.47;3157678;28;19935;-67
2022/07/05 00:33:00;;;;;;;;;;;;;;;21.95;46.52;99763.91;3157608;28;20324;-67
2022/07/05 00:34:31;;;;;;;;;;;;;;;21.98;46.63;99751.22;3157477;28;20383;-67
2022/07/05 00:36:03;;;;;;;;;;;;;;;22.02;46.37;99755.22;3158023;28;19924;-67
2022/07/05 00:37:35;;;;;;;;;;;;;;;22.05;46.07;99746.16;3157630;28;19932;-67
2022/07/05 00:39:07;;;;;;;;;;;;;;;22.08;45.87;99740.56;3157830;28;19947;-67
2022/07/05 00:40:39;;;;;;;;;;;;;;;22.10;46.34;99735.13;3157689;28;19924;-67
2022/07/05 00:42:09;;;;;;;;;;;;;;;22.04;47.10;99729.41;3158265;28;19935;-67
2022/07/05 00:43:52;;;;;;;;;;;;;;;21.99;47.44;99736.97;3157342;28;19928;-67
2022/07/05 00:45:23;;;;;;;;;;;;;;;21.97;46.92;99736.25;3157766;28;19925;-67
2022/07/05 00:46:56;;;;;;;;;;;;;;;22.01;47.08;99740.31;3157554;28;19944;-67
2022/07/05 00:48:28;;;;;;;;;;;;;;;22.04;46.68;99720.63;3157648;28;19928;-67
2022/07/05 00:49:58;;;;;;;;;;;;;;;22.06;46.80;99728.44;3157620;28;20492;-67
2022/07/05 00:51:31;;;;;;;;;;;;;;;22.06;46.33;99729.25;3157345;28;20010;-66
2022/07/05 00:53:02;;;;;;;;;;;;;;;22.07;46.27;99724.81;3157833;28;19985;-67
2022/07/05 00:54:34;;;;;;;;;;;;;;;22.07;46.92;99730.13;3157853;28;19931;-67
2022/07/05 00:56:06;;;;;;;;;;;;;;;22.01;46.95;99720.91;3157324;28;20114;-67
2022/07/05 00:57:38;;;;;;;;;;;;;;;21.96;47.34;99717.84;3157412;28;19928;-67
2022/07/05 00:59:09;;;;;;;;;;;;;;;21.88;48.28;99721.22;3157632;28;19985;-67
2022/07/05 01:00:41;;;;;;;;;;;;;;;21.84;48.10;99717.19;3157452;28;19947;-67
2022/07/05 01:02:14;;;;;;;;;;;;;;;21.88;47.97;99720.38;3157678;28;19931;-67
2022/07/05 01:03:46;;;;;;;;;;;;;;;21.92;47.94;99713.84;3157184;28;19981;-67
2022/07/05 01:05:17;;;;;;;;;;;;;;;21.92;47.69;99719.97;3157537;28;19924;-67
2022/07/05 01:06:49;;;;;;;;;;;;;;;21.97;47.61;99720.34;3157613;28;19924;-67
2022/07/05 01:08:22;;;;;;;;;;;;;;;22.02;47.47;99711.97;3159145;28;20022;-67
2022/07/05 01:09:52;;;;;;;;;;;;;;;22.06;47.10;99720.47;3157475;28;19928;-67
2022/07/05 01:11:24;;;;;;;;;;;;;;;22.10;46.83;99727.19;3162891;28;20758;-66
2022/07/05 01:12:56;;;;;;;;;;;;;;;22.13;46.83;99719.75;3165179;28;19993;-67
2022/07/05 01:14:26;;;;;;;;;;;;;;;22.14;47.14;99723.25;3157381;28;20389;-67
2022/07/05 01:15:58;;;;;;;;;;;;;;;22.15;46.54;99720.44;3157382;28;20077;-67
2022/07/05 01:17:31;;;;;;;;;;;;;;;22.17;46.82;99717.69;3157364;28;19928;-67
2022/07/05 01:19:04;;;;;;;;;;;;;;;22.18;46.91;99719.34;3158413;28;19928;-67
2022/07/05 01:20:36;;;;;;;;;;;;;;;22.19;46.73;99721.84;3159890;28;19935;-67
2022/07/05 01:22:12;;;;;;;;;;;;;;;22.19;46.69;99716.56;3159891;28;19924;-66
2022/07/05 01:23:45;;;;;;;;;;;;;;;22.20;46.96;99712.06;3160281;28;19993;-66
2022/07/05 01:25:17;;;;;;;;;;;;;;;22.19;47.07;99710.41;3159626;28;20324;-67
2022/07/05 01:26:48;;;;;;;;;;;;;;;22.21;46.77;99697.81;3159896;28;19973;-67
2022/07/05 01:28:20;;;;;;;;;;;;;;;22.24;46.84;99701.03;3159716;28;19950;-67
2022/07/05 01:29:51;;;;;;;;;;;;;;;22.24;47.14;99702.84;3159793;28;19925;-66
2022/07/05 01:31:22;;;;;;;;;;;;;;;22.25;46.82;99705.34;3159629;28;19924;-67
2022/07/05 01:32:54;;;;;;;;;;;;;;;22.26;47.01;99706.19;3159810;28;19928;-67
2022/07/05 01:34:26;;;;;;;;;;;;;;;22.22;47.11;99704.81;3159771;28;19927;-66
2022/07/05 01:35:57;;;;;;;;;;;;;;;22.25;47.19;99701.88;3147412;28;19964;-67
2022/07/05 01:37:30;;;;;;;;;;;;;;;22.25;46.89;99699.22;3158187;28;20026;-67
2022/07/05 01:39:04;;;;;;;;;;;;;;;22.28;46.62;99703.41;3160002;28;19935;-66
2022/07/05 01:40:35;;;;;;;;;;;;;;;22.26;47.37;99707.03;3160075;28;19989;-67
2022/07/05 01:42:07;;;;;;;;;;;;;;;22.23;47.47;99702.00;3159470;28;20371;-67
2022/07/05 01:43:39;;;;;;;;;;;;;;;22.25;47.30;99696.56;3159261;28;19947;-67
2022/07/05 01:45:11;;;;;;;;;;;;;;;22.23;47.22;99695.88;3159895;28;19924;-67
2022/07/05 01:46:43;;;;;;;;;;;;;;;22.24;47.41;99700.19;3159689;28;19935;-66
2022/07/05 01:48:15;;;;;;;;;;;;;;;22.23;47.68;99691.41;3159216;28;20009;-67
2022/07/05 01:49:48;;;;;;;;;;;;;;;22.20;47.34;99697.00;3159684;28;19928;-66
2022/07/05 01:51:21;;;;;;;;;;;;;;;22.19;47.63;99702.47;3159422;28;20363;-67
2022/07/05 01:52:53;;;;;;;;;;;;;;;22.19;47.57;99705.13;3159538;28;20386;-67
2022/07/05 01:54:26;;;;;;;;;;;;;;;22.21;47.20;99705.78;3159500;28;19924;-67
2022/07/05 01:55:58;;;;;;;;;;;;;;;22.21;47.40;99706.66;3159249;28;20380;-67
2022/07/05 01:57:29;;;;;;;;;;;;;;;22.21;47.52;99709.28;3154604;28;19984;-67
2022/07/05 01:59:01;;;;;;;;;;;;;;;22.22;47.23;99712.78;3153410;28;19924;-67
2022/07/05 02:00:42;;;;;;;;;;;;;;;22.24;47.14;99716.97;3159442;28;20359;-67
2022/07/05 02:02:13;;;;;;;;;;;;;;;22.23;47.65;99707.31;3159514;28;19962;-66
2022/07/05 02:03:44;;;;;;;;;;;;;;;22.22;47.52;99710.97;3159238;28;19957;-67
2022/07/05 02:05:15;;;;;;;;;;;;;;;22.22;47.76;99710.97;3159367;28;19928;-67
2022/07/05 02:06:46;;;;;;;;;;;;;;;22.24;47.27;99706.34;3159515;28;19924;-66
2022/07/05 02:08:18;;;;;;;;;;;;;;;22.25;47.46;99708.00;3161225;28;19931;-67
2022/07/05 02:09:51;;;;;;;;;;;;;;;22.25;47.49;99713.31;3159448;28;19928;-67
2022/07/05 02:11:22;;;;;;;;;;;;;;;22.20;47.62;99718.22;3159143;28;20010;-67
2022/07/05 02:12:53;;;;;;;;;;;;;;;22.15;48.01;99714.28;3159747;28;19957;-67
2022/07/05 02:14:25;;;;;;;;;;;;;;;22.10;47.94;99717.41;3159197;28;19935;-67
2022/07/05 02:15:57;;;;;;;;;;;;;;;22.05;47.93;99719.63;3159384;28;19928;-67
2022/07/05 02:17:28;;;;;;;;;;;;;;;22.01;47.79;99721.75;3159413;28;20361;-67
2022/07/05 02:19:00;;;;;;;;;;;;;;;22.00;47.92;99733.31;3159655;28;19928;-67
2022/07/05 02:20:32;;;;;;;;;;;;;;;22.04;47.39;99747.16;3159176;28;19924;-67
2022/07/05 02:22:03;;;;;;;;;;;;;;;22.06;47.83;99733.72;3159466;28;19932;-67
2022/07/05 02:23:34;;;;;;;;;;;;;;;22.07;47.32;99735.41;3159088;28;19928;-67
2022/07/05 02:25:08;;;;;;;;;;;;;;;22.07;47.28;99736.25;3159365;28;20444;-67
2022/07/05 02:26:39;;;;;;;;;;;;;;;22.03;47.45;99738.34;3152702;28;19992;-67
2022/07/05 02:28:11;;;;;;;;;;;;;;;21.99;47.38;99729.00;3166611;28;19924;-67
2022/07/05 02:29:43;;;;;;;;;;;;;;;21.98;47.21;99729.16;3159021;28;19924;-67
2022/07/05 02:31:16;;;;;;;;;;;;;;;21.97;47.17;99722.16;3158692;28;19985;-67
2022/07/05 02:32:46;;;;;;;;;;;;;;;21.97;47.13;99733.59;3159299;28;19924;-67
2022/07/05 02:34:18;;;;;;;;;;;;;;;21.88;47.60;99737.13;3159245;28;20011;-66
2022/07/05 02:35:50;;;;;;;;;;;;;;;21.86;47.83;99741.75;3159385;28;19928;-67
2022/07/05 02:37:20;;;;;;;;;;;;;;;21.73;48.03;99733.25;3159099;28;20537;-67
2022/07/05 02:38:52;;;;;;;;;;;;;;;21.75;47.90;99748.03;3159149;28;20010;-67
2022/07/05 02:40:24;;;;;;;;;;;;;;;21.79;47.74;99740.63;3158973;28;19924;-67
2022/07/05 02:41:55;;;;;;;;;;;;;;;21.79;47.61;99740.63;3159195;28;20418;-67
2022/07/05 02:43:26;;;;;;;;;;;;;;;21.78;47.73;99741.63;3158778;28;19924;-67
2022/07/05 02:44:57;;;;;;;;;;;;;;;21.74;47.63;99748.16;3158614;28;20393;-67
2022/07/05 02:46:29;;;;;;;;;;;;;;;21.62;48.14;99739.53;3158979;28;19989;-67
2022/07/05 02:48:00;;;;;;;;;;;;;;;21.54;48.11;99737.63;3158490;28;20454;-67
2022/07/05 02:49:32;;;;;;;;;;;;;;;21.50;48.42;99746.84;3158771;28;20397;-67
2022/07/05 02:51:04;;;;;;;;;;;;;;;21.41;48.67;99746.81;3158882;28;19924;-67
2022/07/05 02:52:36;;;;;;;;;;;;;;;21.31;48.68;99750.28;3158682;28;20011;-67
2022/07/05 02:54:07;;;;;;;;;;;;;;;21.30;48.83;99745.13;3158858;28;19947;-67
2022/07/05 02:55:39;;;;;;;;;;;;;;;21.26;48.94;99756.97;3158947;28;20312;-67
2022/07/05 02:57:10;;;;;;;;;;;;;;;21.27;48.95;99748.06;3158746;28;20251;-68
2022/07/05 02:58:42;;;;;;;;;;;;;;;21.18;49.44;99752.38;3158746;28;19945;-67
2022/07/05 03:00:14;;;;;;;;;;;;;;;21.07;49.51;99748.03;3148178;28;19928;-67
2022/07/05 03:01:45;;;;;;;;;;;;;;;21.00;49.71;99749.56;3158244;28;19928;-66
2022/07/05 03:03:17;;;;;;;;;;;;;;;20.88;50.65;99740.91;3158428;28;20301;-66
2022/07/05 03:04:47;;;;;;;;;;;;;;;20.78;51.08;99747.16;3158572;28;19927;-66
2022/07/05 03:06:19;;;;;;;;;;;;;;;20.68;51.32;99747.13;3158158;28;19924;-66
2022/07/05 03:07:49;;;;;;;;;;;;;;;20.70;51.17;99753.09;3159929;28;19985;-66
2022/07/05 03:09:21;;;;;;;;;;;;;;;20.70;50.99;99746.97;3158210;28;19923;-67
2022/07/05 03:10:54;;;;;;;;;;;;;;;20.73;50.64;99749.34;3158286;28;19989;-66
2022/07/05 03:12:24;;;;;;;;;;;;;;;20.76;50.32;99755.22;3158252;28;19928;-66
2022/07/05 03:13:56;;;;;;;;;;;;;;;20.78;50.13;99758.56;3158542;28;19927;-66
2022/07/05 03:15:27;;;;;;;;;;;;;;;20.79;50.74;99752.28;3158174;28;20037;-66
2022/07/05 03:16:58;;;;;;;;;;;;;;;20.76;50.63;99757.84;3158345;28;20011;-66
2022/07/05 03:18:30;;;;;;;;;;;;;;;20.77;50.61;99753.44;3158043;28;19932;-66
2022/07/05 03:20:00;;;;;;;;;;;;;;;20.79;50.38;99751.47;3158378;28;20326;-67
2022/07/05 03:21:32;;;;;;;;;;;;;;;20.82;50.50;99753.84;3158319;28;20003;-67
2022/07/05 03:23:03;;;;;;;;;;;;;;;20.85;50.20;99751.78;3158828;28;19928;-67
2022/07/05 03:24:35;;;;;;;;;;;;;;;20.86;50.01;99755.25;3158665;28;19935;-67
2022/07/05 03:26:08;;;;;;;;;;;;;;;20.88;50.01;99756.78;3158345;28;19928;-67
2022/07/05 03:27:39;;;;;;;;;;;;;;;20.90;50.11;99754.81;3166059;28;19927;-67
2022/07/05 03:29:10;;;;;;;;;;;;;;;20.93;49.93;99752.88;3158211;28;20073;-67
2022/07/05 03:30:42;;;;;;;;;;;;;;;20.95;50.41;99753.59;3157952;28;19928;-67
2022/07/05 03:32:13;;;;;;;;;;;;;;;20.92;50.49;99741.47;3158318;28;19924;-67
2022/07/05 03:33:45;;;;;;;;;;;;;;;20.93;50.58;99747.59;3158225;28;20254;-67
2022/07/05 03:35:17;;;;;;;;;;;;;;;20.88;50.68;99748.84;3158226;28;19928;-67
2022/07/05 03:36:48;;;;;;;;;;;;;;;20.90;50.36;99746.88;3158288;28;19924;-67
2022/07/05 03:38:20;;;;;;;;;;;;;;;20.90;50.54;99743.41;3158081;28;19950;-67
2022/07/05 03:39:51;;;;;;;;;;;;;;;20.89;51.39;99747.03;3157572;28;19924;-67
2022/07/05 03:41:24;;;;;;;;;;;;;;;20.83;51.63;99734.34;3157261;28;19924;-67
2022/07/05 03:42:55;;;;;;;;;;;;;;;20.77;51.99;99737.56;3157220;28;19928;-67
2022/07/05 03:44:27;;;;;;;;;;;;;;;20.78;51.79;99739.22;3157728;28;19930;-67
2022/07/05 03:45:59;;;;;;;;;;;;;;;20.71;52.66;99740.75;3157907;28;19924;-67
2022/07/05 03:47:30;;;;;;;;;;;;;;;20.70;52.48;99741.69;3157951;28;19928;-67
2022/07/05 03:49:02;;;;;;;;;;;;;;;20.63;53.07;99747.53;3157893;28;19944;-66
2022/07/05 03:50:33;;;;;;;;;;;;;;;20.65;52.77;99742.94;3157112;28;19924;-67
2022/07/05 03:52:05;;;;;;;;;;;;;;;20.68;52.48;99742.66;3156084;28;19928;-67
2022/07/05 03:53:36;;;;;;;;;;;;;;;20.71;52.16;99738.94;3149145;28;19936;-67
2022/07/05 03:55:07;;;;;;;;;;;;;;;20.76;51.79;99736.69;3158236;28;20401;-67
2022/07/05 03:56:39;;;;;;;;;;;;;;;20.79;52.56;99735.59;3157794;28;19981;-67
2022/07/05 03:58:11;;;;;;;;;;;;;;;20.80;52.27;99737.28;3157840;28;19963;-67
2022/07/05 03:59:43;;;;;;;;;;;;;;;20.84;52.35;99741.31;3157845;28;19924;-67
2022/07/05 04:01:14;;;;;;;;;;;;;;;20.86;52.30;99737.56;3157980;28;19924;-67
2022/07/05 04:02:46;;;;;;;;;;;;;;;20.86;52.38;99748.16;3157815;28;20389;-67
2022/07/05 04:04:17;;;;;;;;;;;;;;;20.91;51.78;99745.06;3157799;28;20360;-67
2022/07/05 04:05:49;;;;;;;;;;;;;;;20.95;51.90;99746.50;3157699;28;20411;-67
2022/07/05 04:07:20;;;;;;;;;;;;;;;21.00;51.47;99738.13;3159557;28;20442;-67
2022/07/05 04:08:52;;;;;;;;;;;;;;;21.03;51.48;99743.13;3157939;28;19924;-67
2022/07/05 04:10:23;;;;;;;;;;;;;;;21.09;51.38;99740.78;3157984;28;20297;-67
2022/07/05 04:11:56;;;;;;;;;;;;;;;21.13;50.92;99733.41;3157838;28;19989;-67
2022/07/05 04:13:27;;;;;;;;;;;;;;;21.16;50.98;99741.06;3157779;28;19932;-67
2022/07/05 04:14:59;;;;;;;;;;;;;;;21.21;51.08;99735.34;3157991;28;19939;-67
2022/07/05 04:16:31;;;;;;;;;;;;;;;21.23;51.62;99736.06;3157617;28;19928;-67
2022/07/05 04:18:02;;;;;;;;;;;;;;;21.25;51.72;99724.34;3157640;28;19978;-67
2022/07/05 04:19:34;;;;;;;;;;;;;;;21.28;51.43;99723.25;3157744;28;19928;-67
2022/07/05 04:21:05;;;;;;;;;;;;;;;21.25;51.54;99718.22;3157876;28;20359;-67
2022/07/05 04:22:36;;;;;;;;;;;;;;;21.26;51.56;99723.38;3157838;28;19960;-67
2022/07/05 04:24:08;;;;;;;;;;;;;;;21.24;51.83;99725.34;3157460;28;19939;-67
2022/07/05 04:25:39;;;;;;;;;;;;;;;21.24;51.42;99725.34;3157466;28;19927;-67
2022/07/05 04:27:12;;;;;;;;;;;;;;;21.28;51.29;99725.88;3161305;28;19924;-67
2022/07/05 04:28:44;;;;;;;;;;;;;;;21.31;51.21;99725.59;3161076;28;19998;-67
2022/07/05 04:30:16;;;;;;;;;;;;;;;21.32;51.06;99724.63;3157659;28;19964;-67
2022/07/05 04:31:48;;;;;;;;;;;;;;;21.35;50.97;99716.38;3157549;28;19985;-67
2022/07/05 04:33:18;;;;;;;;;;;;;;;21.40;50.71;99722.16;3157910;28;20598;-67
2022/07/05 04:34:50;;;;;;;;;;;;;;;21.43;50.96;99707.78;3157569;28;19928;-67
2022/07/05 04:36:21;;;;;;;;;;;;;;;21.46;50.67;99712.81;3157107;28;19990;-67
2022/07/05 04:37:52;;;;;;;;;;;;;;;21.49;50.91;99713.34;3157437;28;19932;-67
2022/07/05 04:39:24;;;;;;;;;;;;;;;21.53;50.74;99713.91;3157780;28;19988;-67
2022/07/05 04:40:55;;;;;;;;;;;;;;;21.56;50.37;99714.47;3157426;28;19928;-67
2022/07/05 04:42:28;;;;;;;;;;;;;;;21.60;50.54;99715.00;3157504;28;19980;-67
2022/07/05 04:44:00;;;;;;;;;;;;;;;21.65;50.38;99711.94;3157734;28;19974;-67
2022/07/05 04:45:31;;;;;;;;;;;;;;;21.66;50.16;99716.25;3157883;28;20001;-67
2022/07/05 04:47:03;;;;;;;;;;;;;;;21.72;50.31;99715.69;3157738;28;19924;-67
2022/07/05 04:48:34;;;;;;;;;;;;;;;21.72;50.09;99715.69;3157244;28;19928;-67
2022/07/05 04:50:06;;;;;;;;;;;;;;;21.74;49.96;99714.56;3157758;28;20030;-67
2022/07/05 04:51:38;;;;;;;;;;;;;;;21.76;50.04;99730.31;3157604;28;20270;-67
2022/07/05 04:53:10;;;;;;;;;;;;;;;21.69;50.27;99714.16;3157265;28;19975;-67
2022/07/05 04:54:42;;;;;;;;;;;;;;;21.77;49.90;99729.34;3159400;28;19935;-67
2022/07/05 04:56:14;;;;;;;;;;;;;;;21.79;49.93;99730.88;3160681;28;19924;-67
2022/07/05 04:57:47;;;;;;;;;;;;;;;21.79;49.79;99727.38;3160290;28;19928;-67
2022/07/05 04:59:18;;;;;;;;;;;;;;;21.77;50.19;99722.25;3159978;28;19985;-67
2022/07/05 05:00:50;;;;;;;;;;;;;;;21.74;50.03;99724.31;3160177;28;19978;-67
2022/07/05 05:02:21;;;;;;;;;;;;;;;21.74;50.06;99722.53;3160042;28;19924;-67
2022/07/05 05:03:53;;;;;;;;;;;;;;;21.76;49.94;99719.72;3160122;28;19946;-67
2022/07/05 05:05:25;;;;;;;;;;;;;;;21.80;49.93;99716.66;3160183;28;19932;-67
2022/07/05 05:06:56;;;;;;;;;;;;;;;21.81;49.77;99714.84;3160216;28;19928;-68
2022/07/05 05:08:28;;;;;;;;;;;;;;;21.83;49.77;99718.19;3160367;28;19981;-67
2022/07/05 05:09:58;;;;;;;;;;;;;;;21.87;49.54;99721.38;3159723;28;19935;-67
2022/07/05 05:11:30;;;;;;;;;;;;;;;21.91;49.72;99728.88;3160053;28;19927;-67
2022/07/05 05:13:03;;;;;;;;;;;;;;;21.96;49.49;99729.28;3160324;28;19931;-67
2022/07/05 05:14:34;;;;;;;;;;;;;;;22.03;49.40;99729.53;3159911;28;19928;-67
2022/07/05 05:16:06;;;;;;;;;;;;;;;22.10;49.23;99740.44;3160134;28;19997;-67
2022/07/05 05:17:37;;;;;;;;;;;;;;;22.15;49.15;99739.00;3159861;28;19928;-67
2022/07/05 05:19:09;;;;;;;;;;;;;;;22.21;49.07;99737.59;3160294;28;20439;-67
2022/07/05 05:20:40;;;;;;;;;;;;;;;22.23;49.26;99735.66;3147370;28;19928;-67
2022/07/05 05:22:12;;;;;;;;;;;;;;;22.24;49.32;99745.28;3158550;28;19924;-67
2022/07/05 05:23:44;;;;;;;;;;;;;;;22.26;49.02;99746.81;3159740;28;19932;-67
2022/07/05 05:25:16;;;;;;;;;;;;;;;22.31;49.14;99743.72;3159958;28;19928;-67
2022/07/05 05:26:49;;;;;;;;;;;;;;;22.35;49.12;99749.56;3160248;28;20009;-67
2022/07/05 05:28:22;;;;;;;;;;;;;;;22.39;48.94;99746.50;3166309;28;19935;-67
2022/07/05 05:29:53;;;;;;;;;;;;;;;22.44;48.78;99746.88;3159889;28;19954;-67
2022/07/05 05:31:25;;;;;;;;;;;;;;;22.49;48.80;99751.75;3159794;28;19936;-67
2022/07/05 05:32:58;;;;;;;;;;;;;;;22.56;48.60;99752.00;3159348;28;19932;-67
2022/07/05 05:34:30;;;;;;;;;;;;;;;22.63;48.68;99742.47;3159564;28;20385;-67
2022/07/05 05:36:02;;;;;;;;;;;;;;;22.69;48.70;99748.00;3159544;28;19928;-67
2022/07/05 05:37:45;;;;;;;;;;;;;;;22.80;48.33;99746.13;3159506;28;20031;-67
2022/07/05 05:39:17;;;;;;;;;;;;;;;22.89;48.00;99748.75;3159457;28;19928;-66
2022/07/05 05:40:48;;;;;;;;;;;;;;;22.99;47.92;99753.19;3159754;28;20521;-67
2022/07/05 05:42:20;;;;;;;;;;;;;;;23.05;47.63;99748.09;3159271;28;19928;-67
2022/07/05 05:43:53;;;;;;;;;;;;;;;23.13;47.54;99749.97;3159371;28;19932;-67
2022/07/05 05:45:25;;;;;;;;;;;;;;;23.20;47.50;99751.06;3159413;28;20579;-67
2022/07/05 05:46:56;;;;;;;;;;;;;;;23.27;47.44;99748.63;3159666;28;19928;-67
2022/07/05 05:48:28;;;;;;;;;;;;;;;23.33;47.26;99746.19;3159716;28;19989;-67
2022/07/05 05:49:59;;;;;;;;;;;;;;;23.42;47.19;99749.75;3159103;28;19924;-67
2022/07/05 05:51:31;;;;;;;;;;;;;;;23.50;47.08;99746.34;3159095;28;19931;-67
2022/07/05 05:53:03;;;;;;;;;;;;;;;23.56;46.93;99756.34;3159301;28;19924;-67
2022/07/05 05:54:34;;;;;;;;;;;;;;;23.60;46.84;99755.03;3159174;28;20004;-67
2022/07/05 05:56:06;;;;;;;;;;;;;;;23.63;46.75;99749.41;3159418;28;19947;-67
2022/07/05 05:57:38;;;;;;;;;;;;;;;23.65;46.83;99744.78;3159048;28;19928;-67
2022/07/05 05:59:10;;;;;;;;;;;;;;;23.64;46.68;99756.44;3159621;28;19953;-67
2022/07/05 06:00:42;;;;;;;;;;;;;;;23.57;46.57;99756.22;3156870;28;19985;-67
2022/07/05 06:02:14;;;;;;;;;;;;;;;23.59;46.72;99756.03;3159212;28;19924;-67
2022/07/05 06:03:45;;;;;;;;;;;;;;;23.60;46.50;99757.69;3159338;28;19924;-68
2022/07/05 06:05:18;;;;;;;;;;;;;;;23.58;46.82;99757.88;3158939;28;19981;-66
2022/07/05 06:06:49;;;;;;;;;;;;;;;23.59;46.68;99761.38;3159164;28;20315;-65
2022/07/05 06:08:21;;;;;;;;;;;;;;;23.62;46.76;99751.25;3160970;28;19924;-65
2022/07/05 06:09:53;;;;;;;;;;;;;;;23.68;46.61;99752.47;3159062;28;19928;-66
2022/07/05 06:11:24;;;;;;;;;;;;;;;23.71;46.60;99752.19;3159254;28;20273;-65
2022/07/05 06:12:56;;;;;;;;;;;;;;;23.68;46.57;99733.03;3159313;28;20312;-66
2022/07/05 06:14:29;;;;;;;;;;;;;;;23.75;46.58;99748.25;3159406;28;20058;-66
2022/07/05 06:16:00;;;;;;;;;;;;;;;23.82;46.21;99743.13;3159337;28;19928;-66
2022/07/05 06:17:35;;;;;;;;;;;;;;;23.89;46.11;99738.00;3159228;28;19924;-66
2022/07/05 06:19:07;;;;;;;;;;;;;;;23.94;45.87;99739.22;3159557;28;20294;-66
2022/07/05 06:20:39;;;;;;;;;;;;;;;24.02;46.10;99735.78;3159156;28;20281;-66
2022/07/05 06:22:10;;;;;;;;;;;;;;;24.10;45.83;99730.47;3159163;28;19928;-66
2022/07/05 06:23:42;;;;;;;;;;;;;;;24.18;45.73;99725.22;3159368;28;20469;-66
2022/07/05 06:25:14;;;;;;;;;;;;;;;24.22;45.35;99728.38;3159107;28;19924;-67
2022/07/05 06:26:45;;;;;;;;;;;;;;;24.26;45.37;99719.94;3159329;28;19955;-67
2022/07/05 06:28:17;;;;;;;;;;;;;;;24.29;45.25;99722.28;3166558;28;19924;-67
2022/07/05 06:29:50;;;;;;;;;;;;;;;24.35;45.11;99725.31;3158790;28;19999;-66
2022/07/05 06:31:21;;;;;;;;;;;;;;;24.39;45.29;99719.47;3159000;28;20617;-67
2022/07/05 06:32:54;;;;;;;;;;;;;;;24.42;44.98;99721.84;3159066;28;19924;-67
2022/07/05 06:34:25;;;;;;;;;;;;;;;24.48;44.57;99721.22;3158817;28;19985;-67
2022/07/05 06:35:57;;;;;;;;;;;;;;;24.56;44.49;99723.06;3159253;28;19924;-67
2022/07/05 06:37:27;;;;;;;;;;;;;;;24.59;44.18;99721.94;3159243;28;19936;-67
2022/07/05 06:38:59;;;;;;;;;;;;;;;24.62;44.36;99722.44;3159064;28;19924;-67
2022/07/05 06:40:31;;;;;;;;;;;;;;;24.71;44.39;99718.78;3159216;28;20326;-66
2022/07/05 06:42:01;;;;;;;;;;;;;;;24.77;44.21;99719.97;3158864;28;20321;-67
2022/07/05 06:43:33;;;;;;;;;;;;;;;24.81;43.82;99717.81;3158992;28;19934;-66
2022/07/05 06:45:07;;;;;;;;;;;;;;;24.81;43.14;99717.81;3159074;28;19928;-66
2022/07/05 06:46:38;;;;;;;;;;;;;;;24.80;43.47;99711.66;3159043;28;19935;-67
2022/07/05 06:48:11;;;;;;;;;;;;;;;24.85;43.49;99714.69;3158747;28;19950;-67
2022/07/05 06:49:41;;;;;;;;;;;;;;;24.90;43.14;99716.84;3158728;28;19931;-66
2022/07/05 06:51:13;;;;;;;;;;;;;;;24.94;43.28;99715.53;3158934;28;20519;-66
2022/07/05 06:52:44;;;;;;;;;;;;;;;24.94;43.24;99718.19;3158742;28;20286;-66
2022/07/05 06:54:16;;;;;;;;;;;;;;;24.97;43.11;99707.19;3158882;28;20349;-66
2022/07/05 06:55:47;;;;;;;;;;;;;;;25.04;43.25;99708.19;3158795;28;20487;-66
2022/07/05 06:57:19;;;;;;;;;;;;;;;25.14;43.34;99708.94;3158616;28;19931;-66
2022/07/05 06:58:51;;;;;;;;;;;;;;;25.24;42.99;99708.75;3158965;28;20003;-66
2022/07/05 07:00:24;;;;;;;;;;;;;;;25.36;42.89;99701.25;3158525;28;20462;-66
2022/07/05 07:01:55;;;;;;;;;;;;;;;25.45;42.75;99697.59;3158568;28;19935;-66
2022/07/05 07:03:27;;;;;;;;;;;;;;;25.58;42.62;99705.91;3158710;28;19924;-66
2022/07/05 07:04:58;;;;;;;;;;;;;;;25.69;42.73;99695.91;3158896;28;19924;-66
2022/07/05 07:06:30;;;;;;;;;;;;;;;25.76;41.92;99691.53;3158707;28;19928;-66
2022/07/05 07:09:49;;;;;;;;;;;;;;;26.01;41.67;99682.50;3158671;28;20342;-67
2022/07/05 07:11:21;;;;;;;;;;;;;;;26.10;41.61;99683.31;3158698;28;19981;-66
2022/07/05 07:12:52;;;;;;;;;;;;;;;26.19;41.02;99682.28;3158664;28;19931;-67
2022/07/05 07:14:24;;;;;;;;;;;;;;;26.26;40.40;99671.72;3158475;28;19932;-67
2022/07/05 07:15:57;;;;;;;;;;;;;;;26.34;40.77;99677.03;3158929;28;19928;-67
2022/07/05 07:17:28;;;;;;;;;;;;;;;26.39;40.58;99682.69;3158215;28;19977;-67
2022/07/05 07:19:00;;;;;;;;;;;;;;;26.44;40.21;99688.31;3158668;28;19928;-67
2022/07/05 07:20:31;;;;;;;;;;;;;;;26.51;40.17;99686.66;3158511;28;19924;-67
2022/07/05 07:22:03;;;;;;;;;;;;;;;26.59;40.29;99682.28;3158947;28;19924;-67
2022/07/05 07:23:36;;;;;;;;;;;;;;;26.67;40.40;99674.22;3158716;28;20458;-67
2022/07/05 07:25:08;;;;;;;;;;;;;;;26.72;40.29;99674.53;3158436;28;19931;-67
2022/07/05 07:28:29;;;;;;;;;;;;;;;27.05;38.17;99672.47;3152851;28;19924;-67
2022/07/05 07:30:01;;;;;;;;;;;;;;;27.26;37.60;99676.34;3158135;28;20019;-67
2022/07/05 07:31:34;;;;;;;;;;;;;;;27.44;36.16;99666.97;3158708;28;19931;-67
2022/07/05 07:33:05;;;;;;;;;;;;;;;27.61;37.05;99672.16;3158803;28;19928;-67
2022/07/05 07:34:37;;;;;;;;;;;;;;;27.73;36.62;99678.72;3158628;28;19928;-67
2022/07/05 07:36:09;;;;;;;;;;;;;;;27.84;35.68;99675.63;3158832;28;19928;-67
2022/07/05 07:37:41;;;;;;;;;;;;;;;28.00;35.90;99673.78;3145910;28;19970;-67
2022/07/05 07:39:12;;;;;;;;;;;;;;;28.05;34.53;99674.88;3157330;28;19924;-67
2022/07/05 07:40:44;;;;;;;;;;;;;;;28.05;35.25;99672.22;3158509;28;19973;-67
2022/07/05 07:42:15;;;;;;;;;;;;;;;28.10;35.73;99675.16;3158359;28;19927;-67
2022/07/05 07:43:47;;;;;;;;;;;;;;;28.15;35.31;99674.59;3158202;28;19924;-67
2022/07/05 07:45:18;;;;;;;;;;;;;;;28.20;34.29;99685.59;3158760;28;19924;-67
2022/07/05 07:46:51;;;;;;;;;;;;;;;28.22;33.85;99680.88;3158164;28;20405;-67
2022/07/05 07:48:23;;;;;;;;;;;;;;;28.27;33.95;99683.81;3158189;28;20254;-67
2022/07/05 07:49:54;;;;;;;;;;;;;;;28.33;34.36;99683.06;3158382;28;19928;-67
2022/07/05 07:51:27;;;;;;;;;;;;;;;28.44;34.27;99683.66;3158405;28;19928;-67
2022/07/05 07:52:58;;;;;;;;;;;;;;;28.52;34.43;99676.31;3145936;28;19928;-67
2022/07/05 07:54:30;;;;;;;;;;;;;;;28.62;34.85;99683.22;3157041;28;19985;-67
2022/07/05 07:56:01;;;;;;;;;;;;;;;28.69;33.82;99679.63;3157347;28;19924;-67
2022/07/05 07:57:33;;;;;;;;;;;;;;;28.80;34.21;99678.25;3155715;28;20297;-67
2022/07/05 07:59:04;;;;;;;;;;;;;;;28.96;34.15;99685.25;3158118;28;19924;-68
2022/07/05 08:00:36;;;;;;;;;;;;;;;29.09;34.27;99689.94;3158125;28;19946;-67
2022/07/05 08:02:10;;;;;;;;;;;;;;;29.20;33.87;99690.25;3157986;28;19924;-67